sensor_id;sensor_type;location;lat;lon;timestamp;P1;P2;P0
77515;PMS5003;66627;29.424;-98.496;2023-07-13T00:02:09;5;4;
77515;PMS5003;66627;29.424;-98.496;2023-07-13T00:04:34;3;3;
77515;PMS5003;66627;29.424;-98.496;2023-07-13T00:06:59;5;5;
77515;PMS5003;66627;29.424;-98.496;2023-07-13T00:09:25;2;2;
77515;PMS5003;66627;29.424;-98.496;2023-07-13T00:11:50;4;3;
77515;PMS5003;66627;29.424;-98.496;2023-07-13T00:14:15;5;5;
77515;PMS5003;66627;29.424;-98.496;2023-07-13T00:16:40;4;4;
77515;PMS5003;66627;29.424;-98.496;2023-07-13T00:19:05;3;3;
77515;PMS5003;66627;29.424;-98.496;2023-07-13T00:21:30;3;3;
77515;PMS5003;66627;29.424;-98.496;2023-07-13T00:23:56;3;3;
77515;PMS5003;66627;29.424;-98.496;2023-07-13T00:26:21;4;4;
77515;PMS5003;66627;29.424;-98.496;2023-07-13T00:28:46;2;2;
77515;PMS5003;66627;29.424;-98.496;2023-07-13T00:31:12;3;3;
77515;PMS5003;66627;29.424;-98.496;2023-07-13T00:33:36;2;2;
77515;PMS5003;66627;29.424;-98.496;2023-07-13T00:36:01;2;2;
77515;PMS5003;66627;29.424;-98.496;2023-07-13T00:38:26;1;1;
77515;PMS5003;66627;29.424;-98.496;2023-07-13T00:40:52;4;3;
77515;PMS5003;66627;29.424;-98.496;2023-07-13T00:43:17;4;4;
77515;PMS5003;66627;29.424;-98.496;2023-07-13T00:48:07;3;3;
77515;PMS5003;66627;29.424;-98.496;2023-07-13T00:50:32;3;3;
77515;PMS5003;66627;29.424;-98.496;2023-07-13T00:52:57;4;4;
77515;PMS5003;66627;29.424;-98.496;2023-07-13T00:55:22;2;1;
77515;PMS5003;66627;29.424;-98.496;2023-07-13T00:57:48;2;2;
77515;PMS5003;66627;29.424;-98.496;2023-07-13T01:00:13;4;4;
77515;PMS5003;66627;29.424;-98.496;2023-07-13T01:02:43;3;3;
77515;PMS5003;66627;29.424;-98.496;2023-07-13T01:05:08;5;3;
77515;PMS5003;66627;29.424;-98.496;2023-07-13T01:07:28;2;2;
77515;PMS5003;66627;29.424;-98.496;2023-07-13T01:09:54;4;3;
77515;PMS5003;66627;29.424;-98.496;2023-07-13T01:12:19;5;3;
77515;PMS5003;66627;29.424;-98.496;2023-07-13T01:14:44;7;5;
77515;PMS5003;66627;29.424;-98.496;2023-07-13T01:17:10;4;4;
77515;PMS5003;66627;29.424;-98.496;2023-07-13T01:19:35;13;11;
77515;PMS5003;66627;29.424;-98.496;2023-07-13T01:22:00;4;3;
77515;PMS5003;66627;29.424;-98.496;2023-07-13T01:26:52;6;5;
77515;PMS5003;66627;29.424;-98.496;2023-07-13T01:29:20;5;5;
77515;PMS5003;66627;29.424;-98.496;2023-07-13T01:31:40;3;3;
77515;PMS5003;66627;29.424;-98.496;2023-07-13T01:34:06;5;5;
77515;PMS5003;66627;29.424;-98.496;2023-07-13T01:39:00;6;4;
77515;PMS5003;66627;29.424;-98.496;2023-07-13T01:43:46;5;4;
77515;PMS5003;66627;29.424;-98.496;2023-07-13T01:46:12;4;4;
77515;PMS5003;66627;29.424;-98.496;2023-07-13T01:48:37;6;5;
77515;PMS5003;66627;29.424;-98.496;2023-07-13T01:51:02;5;4;
77515;PMS5003;66627;29.424;-98.496;2023-07-13T01:53:27;5;5;
77515;PMS5003;66627;29.424;-98.496;2023-07-13T01:55:53;4;4;
77515;PMS5003;66627;29.424;-98.496;2023-07-13T01:58:18;4;4;
77515;PMS5003;66627;29.424;-98.496;2023-07-13T02:00:43;4;4;
77515;PMS5003;66627;29.424;-98.496;2023-07-13T02:03:09;5;5;
77515;PMS5003;66627;29.424;-98.496;2023-07-13T02:05:34;4;4;
77515;PMS5003;66627;29.424;-98.496;2023-07-13T02:07:59;3;3;
77515;PMS5003;66627;29.424;-98.496;2023-07-13T02:10:24;5;5;
77515;PMS5003;66627;29.424;-98.496;2023-07-13T02:12:50;8;6;
77515;PMS5003;66627;29.424;-98.496;2023-07-13T02:15:15;4;2;
77515;PMS5003;66627;29.424;-98.496;2023-07-13T02:17:41;4;4;
77515;PMS5003;66627;29.424;-98.496;2023-07-13T02:20:06;7;5;
77515;PMS5003;66627;29.424;-98.496;2023-07-13T02:22:31;5;3;
77515;PMS5003;66627;29.424;-98.496;2023-07-13T02:24:56;4;4;
77515;PMS5003;66627;29.424;-98.496;2023-07-13T02:27:21;4;4;
77515;PMS5003;66627;29.424;-98.496;2023-07-13T02:29:46;6;5;
77515;PMS5003;66627;29.424;-98.496;2023-07-13T02:32:12;5;5;
77515;PMS5003;66627;29.424;-98.496;2023-07-13T02:34:40;4;4;
77515;PMS5003;66627;29.424;-98.496;2023-07-13T02:37:02;6;6;
77515;PMS5003;66627;29.424;-98.496;2023-07-13T02:39:27;5;5;
77515;PMS5003;66627;29.424;-98.496;2023-07-13T02:41:52;7;6;
77515;PMS5003;66627;29.424;-98.496;2023-07-13T02:44:17;8;6;
77515;PMS5003;66627;29.424;-98.496;2023-07-13T02:46:42;6;6;
77515;PMS5003;66627;29.424;-98.496;2023-07-13T02:49:08;5;5;
77515;PMS5003;66627;29.424;-98.496;2023-07-13T02:51:33;5;4;
77515;PMS5003;66627;29.424;-98.496;2023-07-13T02:53:58;5;5;
77515;PMS5003;66627;29.424;-98.496;2023-07-13T02:56:24;4;4;
77515;PMS5003;66627;29.424;-98.496;2023-07-13T02:58:48;5;3;
77515;PMS5003;66627;29.424;-98.496;2023-07-13T03:01:14;3;3;
77515;PMS5003;66627;29.424;-98.496;2023-07-13T03:03:40;7;7;
77515;PMS5003;66627;29.424;-98.496;2023-07-13T03:06:05;3;3;
77515;PMS5003;66627;29.424;-98.496;2023-07-13T03:08:30;5;4;
77515;PMS5003;66627;29.424;-98.496;2023-07-13T03:11:00;3;3;
77515;PMS5003;66627;29.424;-98.496;2023-07-13T03:13:21;5;5;
77515;PMS5003;66627;29.424;-98.496;2023-07-13T03:15:48;5;4;
77515;PMS5003;66627;29.424;-98.496;2023-07-13T03:18:11;8;7;
77515;PMS5003;66627;29.424;-98.496;2023-07-13T03:20:36;4;4;
77515;PMS5003;66627;29.424;-98.496;2023-07-13T03:23:01;4;4;
77515;PMS5003;66627;29.424;-98.496;2023-07-13T03:25:27;5;5;
77515;PMS5003;66627;29.424;-98.496;2023-07-13T03:27:52;4;4;
77515;PMS5003;66627;29.424;-98.496;2023-07-13T03:32:42;4;4;
77515;PMS5003;66627;29.424;-98.496;2023-07-13T03:35:08;7;3;
77515;PMS5003;66627;29.424;-98.496;2023-07-13T03:37:34;5;3;
77515;PMS5003;66627;29.424;-98.496;2023-07-13T03:39:58;6;6;
77515;PMS5003;66627;29.424;-98.496;2023-07-13T03:42:24;4;4;
77515;PMS5003;66627;29.424;-98.496;2023-07-13T03:44:49;7;6;
77515;PMS5003;66627;29.424;-98.496;2023-07-13T03:47:14;4;3;
77515;PMS5003;66627;29.424;-98.496;2023-07-13T03:49:40;4;4;
77515;PMS5003;66627;29.424;-98.496;2023-07-13T03:52:05;6;6;
77515;PMS5003;66627;29.424;-98.496;2023-07-13T03:54:35;4;4;
77515;PMS5003;66627;29.424;-98.496;2023-07-13T03:56:55;8;5;
77515;PMS5003;66627;29.424;-98.496;2023-07-13T03:59:20;5;4;
77515;PMS5003;66627;29.424;-98.496;2023-07-13T04:01:46;3;3;
77515;PMS5003;66627;29.424;-98.496;2023-07-13T04:04:11;8;6;
77515;PMS5003;66627;29.424;-98.496;2023-07-13T04:06:36;7;7;
77515;PMS5003;66627;29.424;-98.496;2023-07-13T04:09:02;6;6;
77515;PMS5003;66627;29.424;-98.496;2023-07-13T04:11:28;5;5;
77515;PMS5003;66627;29.424;-98.496;2023-07-13T04:13:53;7;5;
77515;PMS5003;66627;29.424;-98.496;2023-07-13T04:16:17;8;7;
77515;PMS5003;66627;29.424;-98.496;2023-07-13T04:21:08;7;6;
77515;PMS5003;66627;29.424;-98.496;2023-07-13T04:23:33;5;5;
77515;PMS5003;66627;29.424;-98.496;2023-07-13T04:25:59;3;3;
77515;PMS5003;66627;29.424;-98.496;2023-07-13T04:28:25;4;4;
77515;PMS5003;66627;29.424;-98.496;2023-07-13T04:30:49;9;6;
77515;PMS5003;66627;29.424;-98.496;2023-07-13T04:33:14;5;5;
77515;PMS5003;66627;29.424;-98.496;2023-07-13T04:35:39;7;5;
77515;PMS5003;66627;29.424;-98.496;2023-07-13T04:38:04;6;6;
77515;PMS5003;66627;29.424;-98.496;2023-07-13T04:40:30;4;4;
77515;PMS5003;66627;29.424;-98.496;2023-07-13T04:42:55;5;5;
77515;PMS5003;66627;29.424;-98.496;2023-07-13T04:45:20;5;5;
77515;PMS5003;66627;29.424;-98.496;2023-07-13T04:47:45;7;6;
77515;PMS5003;66627;29.424;-98.496;2023-07-13T04:50:12;7;6;
77515;PMS5003;66627;29.424;-98.496;2023-07-13T04:52:35;5;3;
77515;PMS5003;66627;29.424;-98.496;2023-07-13T04:55:00;5;5;
77515;PMS5003;66627;29.424;-98.496;2023-07-13T04:57:26;6;3;
77515;PMS5003;66627;29.424;-98.496;2023-07-13T04:59:51;8;7;
77515;PMS5003;66627;29.424;-98.496;2023-07-13T05:02:17;4;4;
77515;PMS5003;66627;29.424;-98.496;2023-07-13T05:04:41;4;4;
77515;PMS5003;66627;29.424;-98.496;2023-07-13T05:07:07;7;6;
77515;PMS5003;66627;29.424;-98.496;2023-07-13T05:09:32;5;5;
77515;PMS5003;66627;29.424;-98.496;2023-07-13T05:11:57;5;5;
77515;PMS5003;66627;29.424;-98.496;2023-07-13T05:14:22;8;4;
77515;PMS5003;66627;29.424;-98.496;2023-07-13T05:16:47;6;6;
77515;PMS5003;66627;29.424;-98.496;2023-07-13T05:19:12;3;3;
77515;PMS5003;66627;29.424;-98.496;2023-07-13T05:21:37;4;4;
77515;PMS5003;66627;29.424;-98.496;2023-07-13T05:24:03;3;3;
77515;PMS5003;66627;29.424;-98.496;2023-07-13T05:26:28;5;5;
77515;PMS5003;66627;29.424;-98.496;2023-07-13T05:28:53;7;6;
77515;PMS5003;66627;29.424;-98.496;2023-07-13T05:31:18;6;4;
77515;PMS5003;66627;29.424;-98.496;2023-07-13T05:33:44;5;5;
77515;PMS5003;66627;29.424;-98.496;2023-07-13T05:36:09;4;4;
77515;PMS5003;66627;29.424;-98.496;2023-07-13T05:38:34;3;3;
77515;PMS5003;66627;29.424;-98.496;2023-07-13T05:40:59;2;2;
77515;PMS5003;66627;29.424;-98.496;2023-07-13T05:43:24;5;5;
77515;PMS5003;66627;29.424;-98.496;2023-07-13T05:45:50;6;6;
77515;PMS5003;66627;29.424;-98.496;2023-07-13T05:48:15;4;4;
77515;PMS5003;66627;29.424;-98.496;2023-07-13T05:50:40;6;5;
77515;PMS5003;66627;29.424;-98.496;2023-07-13T05:53:05;4;4;
77515;PMS5003;66627;29.424;-98.496;2023-07-13T05:55:30;7;6;
77515;PMS5003;66627;29.424;-98.496;2023-07-13T05:57:56;6;6;
77515;PMS5003;66627;29.424;-98.496;2023-07-13T06:00:21;5;5;
77515;PMS5003;66627;29.424;-98.496;2023-07-13T06:02:46;8;6;
77515;PMS5003;66627;29.424;-98.496;2023-07-13T06:05:11;3;3;
77515;PMS5003;66627;29.424;-98.496;2023-07-13T06:07:37;4;4;
77515;PMS5003;66627;29.424;-98.496;2023-07-13T06:10:02;8;4;
77515;PMS5003;66627;29.424;-98.496;2023-07-13T06:12:27;6;5;
77515;PMS5003;66627;29.424;-98.496;2023-07-13T06:14:52;7;5;
77515;PMS5003;66627;29.424;-98.496;2023-07-13T06:17:17;9;7;
77515;PMS5003;66627;29.424;-98.496;2023-07-13T06:19:42;6;6;
77515;PMS5003;66627;29.424;-98.496;2023-07-13T06:22:08;7;5;
77515;PMS5003;66627;29.424;-98.496;2023-07-13T06:24:33;4;4;
77515;PMS5003;66627;29.424;-98.496;2023-07-13T06:26:58;7;7;
77515;PMS5003;66627;29.424;-98.496;2023-07-13T06:29:23;5;5;
77515;PMS5003;66627;29.424;-98.496;2023-07-13T06:31:48;6;4;
77515;PMS5003;66627;29.424;-98.496;2023-07-13T06:34:14;5;5;
77515;PMS5003;66627;29.424;-98.496;2023-07-13T06:36:39;6;6;
77515;PMS5003;66627;29.424;-98.496;2023-07-13T06:39:04;7;7;
77515;PMS5003;66627;29.424;-98.496;2023-07-13T06:41:29;6;6;
77515;PMS5003;66627;29.424;-98.496;2023-07-13T06:43:55;4;4;
77515;PMS5003;66627;29.424;-98.496;2023-07-13T06:46:20;7;7;
77515;PMS5003;66627;29.424;-98.496;2023-07-13T06:48:46;8;5;
77515;PMS5003;66627;29.424;-98.496;2023-07-13T06:51:11;6;5;
77515;PMS5003;66627;29.424;-98.496;2023-07-13T06:53:36;7;6;
77515;PMS5003;66627;29.424;-98.496;2023-07-13T06:56:01;5;5;
77515;PMS5003;66627;29.424;-98.496;2023-07-13T06:58:26;5;5;
77515;PMS5003;66627;29.424;-98.496;2023-07-13T07:00:52;6;6;
77515;PMS5003;66627;29.424;-98.496;2023-07-13T07:03:17;7;6;
77515;PMS5003;66627;29.424;-98.496;2023-07-13T07:05:42;8;8;
77515;PMS5003;66627;29.424;-98.496;2023-07-13T07:08:08;6;6;
77515;PMS5003;66627;29.424;-98.496;2023-07-13T07:10:33;10;9;
77515;PMS5003;66627;29.424;-98.496;2023-07-13T07:12:58;8;7;
77515;PMS5003;66627;29.424;-98.496;2023-07-13T07:15:23;10;10;
77515;PMS5003;66627;29.424;-98.496;2023-07-13T07:17:49;5;5;
77515;PMS5003;66627;29.424;-98.496;2023-07-13T07:20:15;10;8;
77515;PMS5003;66627;29.424;-98.496;2023-07-13T07:22:39;8;7;
77515;PMS5003;66627;29.424;-98.496;2023-07-13T07:25:04;9;6;
77515;PMS5003;66627;29.424;-98.496;2023-07-13T07:27:29;9;8;
77515;PMS5003;66627;29.424;-98.496;2023-07-13T07:29:54;6;6;
77515;PMS5003;66627;29.424;-98.496;2023-07-13T07:32:20;9;9;
77515;PMS5003;66627;29.424;-98.496;2023-07-13T07:34:45;9;8;
77515;PMS5003;66627;29.424;-98.496;2023-07-13T07:37:10;7;6;
77515;PMS5003;66627;29.424;-98.496;2023-07-13T07:39:35;7;7;
77515;PMS5003;66627;29.424;-98.496;2023-07-13T07:42:00;9;8;
77515;PMS5003;66627;29.424;-98.496;2023-07-13T07:44:25;5;5;
77515;PMS5003;66627;29.424;-98.496;2023-07-13T07:46:51;9;9;
77515;PMS5003;66627;29.424;-98.496;2023-07-13T07:49:15;8;8;
77515;PMS5003;66627;29.424;-98.496;2023-07-13T07:51:41;8;7;
77515;PMS5003;66627;29.424;-98.496;2023-07-13T07:54:06;6;6;
77515;PMS5003;66627;29.424;-98.496;2023-07-13T07:56:32;6;6;
77515;PMS5003;66627;29.424;-98.496;2023-07-13T07:58:57;8;7;
77515;PMS5003;66627;29.424;-98.496;2023-07-13T08:01:22;9;9;
77515;PMS5003;66627;29.424;-98.496;2023-07-13T08:03:47;7;7;
77515;PMS5003;66627;29.424;-98.496;2023-07-13T08:06:13;7;7;
77515;PMS5003;66627;29.424;-98.496;2023-07-13T08:08:38;7;7;
77515;PMS5003;66627;29.424;-98.496;2023-07-13T08:11:03;10;10;
77515;PMS5003;66627;29.424;-98.496;2023-07-13T08:13:28;7;6;
77515;PMS5003;66627;29.424;-98.496;2023-07-13T08:15:54;5;5;
77515;PMS5003;66627;29.424;-98.496;2023-07-13T08:18:19;11;11;
77515;PMS5003;66627;29.424;-98.496;2023-07-13T08:20:44;9;8;
77515;PMS5003;66627;29.424;-98.496;2023-07-13T08:23:11;7;7;
77515;PMS5003;66627;29.424;-98.496;2023-07-13T08:25:35;6;6;
77515;PMS5003;66627;29.424;-98.496;2023-07-13T08:28:01;8;8;
77515;PMS5003;66627;29.424;-98.496;2023-07-13T08:30:26;9;9;
77515;PMS5003;66627;29.424;-98.496;2023-07-13T08:32:52;8;8;
77515;PMS5003;66627;29.424;-98.496;2023-07-13T08:35:17;12;10;
77515;PMS5003;66627;29.424;-98.496;2023-07-13T08:37:43;6;6;
77515;PMS5003;66627;29.424;-98.496;2023-07-13T08:40:08;11;10;
77515;PMS5003;66627;29.424;-98.496;2023-07-13T08:42:35;12;10;
77515;PMS5003;66627;29.424;-98.496;2023-07-13T08:45:02;11;7;
77515;PMS5003;66627;29.424;-98.496;2023-07-13T08:47:23;7;7;
77515;PMS5003;66627;29.424;-98.496;2023-07-13T08:49:48;8;6;
77515;PMS5003;66627;29.424;-98.496;2023-07-13T08:52:16;9;8;
77515;PMS5003;66627;29.424;-98.496;2023-07-13T08:54:41;8;8;
77515;PMS5003;66627;29.424;-98.496;2023-07-13T08:57:10;8;8;
77515;PMS5003;66627;29.424;-98.496;2023-07-13T08:59:30;8;8;
77515;PMS5003;66627;29.424;-98.496;2023-07-13T09:02:00;11;9;
77515;PMS5003;66627;29.424;-98.496;2023-07-13T09:04:21;8;8;
77515;PMS5003;66627;29.424;-98.496;2023-07-13T09:06:48;11;8;
77515;PMS5003;66627;29.424;-98.496;2023-07-13T09:09:14;10;8;
77515;PMS5003;66627;29.424;-98.496;2023-07-13T09:11:41;12;10;
77515;PMS5003;66627;29.424;-98.496;2023-07-13T09:14:05;9;9;
77515;PMS5003;66627;29.424;-98.496;2023-07-13T09:16:28;10;10;
77515;PMS5003;66627;29.424;-98.496;2023-07-13T09:18:54;13;9;
77515;PMS5003;66627;29.424;-98.496;2023-07-13T09:21:23;9;9;
77515;PMS5003;66627;29.424;-98.496;2023-07-13T09:23:44;9;9;
77515;PMS5003;66627;29.424;-98.496;2023-07-13T09:26:11;14;13;
77515;PMS5003;66627;29.424;-98.496;2023-07-13T09:28:37;11;11;
77515;PMS5003;66627;29.424;-98.496;2023-07-13T09:31:01;11;10;
77515;PMS5003;66627;29.424;-98.496;2023-07-13T09:33:26;12;10;
77515;PMS5003;66627;29.424;-98.496;2023-07-13T09:35:51;8;8;
77515;PMS5003;66627;29.424;-98.496;2023-07-13T09:38:18;8;8;
77515;PMS5003;66627;29.424;-98.496;2023-07-13T09:40:49;13;10;
77515;PMS5003;66627;29.424;-98.496;2023-07-13T09:43:08;11;11;
77515;PMS5003;66627;29.424;-98.496;2023-07-13T09:45:33;12;12;
77515;PMS5003;66627;29.424;-98.496;2023-07-13T09:48:04;14;12;
77515;PMS5003;66627;29.424;-98.496;2023-07-13T09:50:23;15;10;
77515;PMS5003;66627;29.424;-98.496;2023-07-13T09:52:49;7;7;
77515;PMS5003;66627;29.424;-98.496;2023-07-13T09:57:39;9;9;
77515;PMS5003;66627;29.424;-98.496;2023-07-13T10:00:05;10;8;
77515;PMS5003;66627;29.424;-98.496;2023-07-13T10:02:30;9;9;
77515;PMS5003;66627;29.424;-98.496;2023-07-13T10:04:56;12;9;
77515;PMS5003;66627;29.424;-98.496;2023-07-13T10:07:22;8;8;
77515;PMS5003;66627;29.424;-98.496;2023-07-13T10:09:46;10;10;
77515;PMS5003;66627;29.424;-98.496;2023-07-13T10:12:14;13;11;
77515;PMS5003;66627;29.424;-98.496;2023-07-13T10:14:36;12;12;
77515;PMS5003;66627;29.424;-98.496;2023-07-13T10:17:02;14;12;
77515;PMS5003;66627;29.424;-98.496;2023-07-13T10:19:27;13;11;
77515;PMS5003;66627;29.424;-98.496;2023-07-13T10:21:53;15;12;
77515;PMS5003;66627;29.424;-98.496;2023-07-13T10:24:19;10;10;
77515;PMS5003;66627;29.424;-98.496;2023-07-13T10:26:47;11;11;
77515;PMS5003;66627;29.424;-98.496;2023-07-13T10:29:09;12;12;
77515;PMS5003;66627;29.424;-98.496;2023-07-13T10:31:34;12;11;
77515;PMS5003;66627;29.424;-98.496;2023-07-13T10:33:59;11;10;
77515;PMS5003;66627;29.424;-98.496;2023-07-13T10:36:29;13;13;
77515;PMS5003;66627;29.424;-98.496;2023-07-13T10:38:50;15;14;
77515;PMS5003;66627;29.424;-98.496;2023-07-13T10:41:17;12;11;
77515;PMS5003;66627;29.424;-98.496;2023-07-13T10:43:41;15;13;
77515;PMS5003;66627;29.424;-98.496;2023-07-13T10:46:10;13;11;
77515;PMS5003;66627;29.424;-98.496;2023-07-13T10:48:32;13;13;
77515;PMS5003;66627;29.424;-98.496;2023-07-13T10:50:57;11;11;
77515;PMS5003;66627;29.424;-98.496;2023-07-13T10:53:28;13;13;
77515;PMS5003;66627;29.424;-98.496;2023-07-13T10:55:56;14;14;
77515;PMS5003;66627;29.424;-98.496;2023-07-13T10:58:20;16;16;
77515;PMS5003;66627;29.424;-98.496;2023-07-13T11:12:51;16;15;
77515;PMS5003;66627;29.424;-98.496;2023-07-13T11:17:46;16;15;
77515;PMS5003;66627;29.424;-98.496;2023-07-13T11:20:18;15;14;
77515;PMS5003;66627;29.424;-98.496;2023-07-13T11:24:57;13;12;
77515;PMS5003;66627;29.424;-98.496;2023-07-13T11:27:22;18;14;
77515;PMS5003;66627;29.424;-98.496;2023-07-13T11:29:43;15;15;
77515;PMS5003;66627;29.424;-98.496;2023-07-13T11:34:34;16;16;
77515;PMS5003;66627;29.424;-98.496;2023-07-13T11:36:59;12;11;
77515;PMS5003;66627;29.424;-98.496;2023-07-13T11:39:24;13;13;
77515;PMS5003;66627;29.424;-98.496;2023-07-13T11:41:50;13;13;
77515;PMS5003;66627;29.424;-98.496;2023-07-13T11:44:16;12;12;
77515;PMS5003;66627;29.424;-98.496;2023-07-13T11:46:44;13;11;
77515;PMS5003;66627;29.424;-98.496;2023-07-13T11:49:06;12;12;
77515;PMS5003;66627;29.424;-98.496;2023-07-13T11:51:33;11;10;
77515;PMS5003;66627;29.424;-98.496;2023-07-13T11:53:58;15;15;
77515;PMS5003;66627;29.424;-98.496;2023-07-13T11:56:22;14;14;
77515;PMS5003;66627;29.424;-98.496;2023-07-13T11:58:48;12;11;
77515;PMS5003;66627;29.424;-98.496;2023-07-13T12:01:16;16;16;
77515;PMS5003;66627;29.424;-98.496;2023-07-13T12:03:38;15;14;
77515;PMS5003;66627;29.424;-98.496;2023-07-13T12:06:05;17;16;
77515;PMS5003;66627;29.424;-98.496;2023-07-13T12:08:30;18;14;
77515;PMS5003;66627;29.424;-98.496;2023-07-13T12:11:02;17;13;
77515;PMS5003;66627;29.424;-98.496;2023-07-13T12:13:21;12;12;
77515;PMS5003;66627;29.424;-98.496;2023-07-13T12:15:46;14;14;
77515;PMS5003;66627;29.424;-98.496;2023-07-13T12:18:12;14;13;
77515;PMS5003;66627;29.424;-98.496;2023-07-13T12:20:37;15;14;
77515;PMS5003;66627;29.424;-98.496;2023-07-13T12:23:04;20;17;
77515;PMS5003;66627;29.424;-98.496;2023-07-13T12:25:27;16;16;
77515;PMS5003;66627;29.424;-98.496;2023-07-13T12:27:52;12;12;
77515;PMS5003;66627;29.424;-98.496;2023-07-13T12:32:43;11;10;
77515;PMS5003;66627;29.424;-98.496;2023-07-13T12:35:14;17;16;
77515;PMS5003;66627;29.424;-98.496;2023-07-13T12:37:34;13;13;
77515;PMS5003;66627;29.424;-98.496;2023-07-13T12:39:59;14;12;
77515;PMS5003;66627;29.424;-98.496;2023-07-13T12:42:27;17;15;
77515;PMS5003;66627;29.424;-98.496;2023-07-13T12:44:52;14;14;
77515;PMS5003;66627;29.424;-98.496;2023-07-13T12:47:19;16;15;
77515;PMS5003;66627;29.424;-98.496;2023-07-13T12:49:43;15;13;
77515;PMS5003;66627;29.424;-98.496;2023-07-13T12:52:12;14;14;
77515;PMS5003;66627;29.424;-98.496;2023-07-13T12:54:33;13;11;
77515;PMS5003;66627;29.424;-98.496;2023-07-13T12:56:58;13;12;
77515;PMS5003;66627;29.424;-98.496;2023-07-13T12:59:24;16;14;
77515;PMS5003;66627;29.424;-98.496;2023-07-13T13:01:49;17;15;
77515;PMS5003;66627;29.424;-98.496;2023-07-13T13:04:14;14;13;
77515;PMS5003;66627;29.424;-98.496;2023-07-13T13:06:39;11;11;
77515;PMS5003;66627;29.424;-98.496;2023-07-13T13:09:05;13;13;
77515;PMS5003;66627;29.424;-98.496;2023-07-13T13:11:31;20;17;
77515;PMS5003;66627;29.424;-98.496;2023-07-13T13:13:55;16;13;
77515;PMS5003;66627;29.424;-98.496;2023-07-13T13:16:22;14;13;
77515;PMS5003;66627;29.424;-98.496;2023-07-13T13:18:46;17;17;
77515;PMS5003;66627;29.424;-98.496;2023-07-13T13:21:12;12;12;
77515;PMS5003;66627;29.424;-98.496;2023-07-13T13:23:37;21;16;
77515;PMS5003;66627;29.424;-98.496;2023-07-13T13:26:02;12;11;
77515;PMS5003;66627;29.424;-98.496;2023-07-13T13:28:28;15;13;
77515;PMS5003;66627;29.424;-98.496;2023-07-13T13:30:53;17;15;
77515;PMS5003;66627;29.424;-98.496;2023-07-13T13:33:20;14;14;
77515;PMS5003;66627;29.424;-98.496;2023-07-13T13:35:45;16;15;
77515;PMS5003;66627;29.424;-98.496;2023-07-13T13:38:11;12;10;
77515;PMS5003;66627;29.424;-98.496;2023-07-13T13:40:35;18;15;
77515;PMS5003;66627;29.424;-98.496;2023-07-13T13:43:00;12;10;
77515;PMS5003;66627;29.424;-98.496;2023-07-13T13:45:26;13;13;
77515;PMS5003;66627;29.424;-98.496;2023-07-13T13:47:52;12;12;
77515;PMS5003;66627;29.424;-98.496;2023-07-13T13:50:18;14;14;
77515;PMS5003;66627;29.424;-98.496;2023-07-13T13:52:42;13;13;
77515;PMS5003;66627;29.424;-98.496;2023-07-13T13:57:33;17;14;
77515;PMS5003;66627;29.424;-98.496;2023-07-13T13:59:59;13;13;
77515;PMS5003;66627;29.424;-98.496;2023-07-13T14:02:25;15;15;
77515;PMS5003;66627;29.424;-98.496;2023-07-13T14:04:53;13;13;
77515;PMS5003;66627;29.424;-98.496;2023-07-13T14:07:15;16;16;
77515;PMS5003;66627;29.424;-98.496;2023-07-13T14:09:41;14;13;
77515;PMS5003;66627;29.424;-98.496;2023-07-13T14:12:08;11;11;
77515;PMS5003;66627;29.424;-98.496;2023-07-13T14:14:31;10;10;
77515;PMS5003;66627;29.424;-98.496;2023-07-13T14:16:57;13;12;
77515;PMS5003;66627;29.424;-98.496;2023-07-13T14:19:22;19;14;
77515;PMS5003;66627;29.424;-98.496;2023-07-13T14:21:48;14;12;
77515;PMS5003;66627;29.424;-98.496;2023-07-13T14:24:13;12;11;
77515;PMS5003;66627;29.424;-98.496;2023-07-13T14:26:40;14;14;
77515;PMS5003;66627;29.424;-98.496;2023-07-13T14:29:08;16;14;
77515;PMS5003;66627;29.424;-98.496;2023-07-13T14:31:30;14;13;
77515;PMS5003;66627;29.424;-98.496;2023-07-13T14:33:55;12;12;
77515;PMS5003;66627;29.424;-98.496;2023-07-13T14:36:23;13;13;
77515;PMS5003;66627;29.424;-98.496;2023-07-13T14:38:47;15;13;
77515;PMS5003;66627;29.424;-98.496;2023-07-13T14:41:12;13;13;
77515;PMS5003;66627;29.424;-98.496;2023-07-13T14:43:38;17;14;
77515;PMS5003;66627;29.424;-98.496;2023-07-13T14:46:03;13;13;
77515;PMS5003;66627;29.424;-98.496;2023-07-13T14:48:29;11;11;
77515;PMS5003;66627;29.424;-98.496;2023-07-13T14:50:54;11;10;
77515;PMS5003;66627;29.424;-98.496;2023-07-13T14:53:20;10;10;
77515;PMS5003;66627;29.424;-98.496;2023-07-13T14:55:45;11;11;
77515;PMS5003;66627;29.424;-98.496;2023-07-13T14:58:10;13;13;
77515;PMS5003;66627;29.424;-98.496;2023-07-13T15:00:35;14;13;
77515;PMS5003;66627;29.424;-98.496;2023-07-13T15:03:00;13;10;
77515;PMS5003;66627;29.424;-98.496;2023-07-13T15:05:28;11;11;
77515;PMS5003;66627;29.424;-98.496;2023-07-13T15:07:52;12;11;
77515;PMS5003;66627;29.424;-98.496;2023-07-13T15:10:18;13;11;
77515;PMS5003;66627;29.424;-98.496;2023-07-13T15:12:42;13;13;
77515;PMS5003;66627;29.424;-98.496;2023-07-13T15:15:08;11;11;
77515;PMS5003;66627;29.424;-98.496;2023-07-13T15:17:33;13;11;
77515;PMS5003;66627;29.424;-98.496;2023-07-13T15:19:58;15;11;
77515;PMS5003;66627;29.424;-98.496;2023-07-13T15:22:23;13;11;
77515;PMS5003;66627;29.424;-98.496;2023-07-13T15:24:49;9;8;
77515;PMS5003;66627;29.424;-98.496;2023-07-13T15:27:14;12;11;
77515;PMS5003;66627;29.424;-98.496;2023-07-13T15:29:39;11;9;
77515;PMS5003;66627;29.424;-98.496;2023-07-13T15:32:05;10;10;
77515;PMS5003;66627;29.424;-98.496;2023-07-13T15:34:30;12;12;
77515;PMS5003;66627;29.424;-98.496;2023-07-13T15:36:55;13;12;
77515;PMS5003;66627;29.424;-98.496;2023-07-13T15:39:20;7;7;
77515;PMS5003;66627;29.424;-98.496;2023-07-13T15:41:45;12;11;
77515;PMS5003;66627;29.424;-98.496;2023-07-13T15:46:35;9;9;
77515;PMS5003;66627;29.424;-98.496;2023-07-13T15:49:01;9;9;
77515;PMS5003;66627;29.424;-98.496;2023-07-13T15:51:27;9;9;
77515;PMS5003;66627;29.424;-98.496;2023-07-13T15:53:52;8;8;
77515;PMS5003;66627;29.424;-98.496;2023-07-13T15:56:19;11;11;
77515;PMS5003;66627;29.424;-98.496;2023-07-13T15:58:44;10;10;
77515;PMS5003;66627;29.424;-98.496;2023-07-13T16:01:09;12;9;
77515;PMS5003;66627;29.424;-98.496;2023-07-13T16:03:33;10;7;
77515;PMS5003;66627;29.424;-98.496;2023-07-13T16:05:58;6;6;
77515;PMS5003;66627;29.424;-98.496;2023-07-13T16:08:25;9;8;
77515;PMS5003;66627;29.424;-98.496;2023-07-13T16:10:50;9;8;
77515;PMS5003;66627;29.424;-98.496;2023-07-13T16:13:15;11;9;
77515;PMS5003;66627;29.424;-98.496;2023-07-13T16:15:40;11;9;
77515;PMS5003;66627;29.424;-98.496;2023-07-13T16:18:05;8;8;
77515;PMS5003;66627;29.424;-98.496;2023-07-13T16:20:30;7;7;
77515;PMS5003;66627;29.424;-98.496;2023-07-13T16:22:55;8;8;
77515;PMS5003;66627;29.424;-98.496;2023-07-13T16:25:21;11;8;
77515;PMS5003;66627;29.424;-98.496;2023-07-13T16:27:46;7;7;
77515;PMS5003;66627;29.424;-98.496;2023-07-13T16:30:13;9;9;
77515;PMS5003;66627;29.424;-98.496;2023-07-13T16:32:36;13;10;
77515;PMS5003;66627;29.424;-98.496;2023-07-13T16:35:01;10;8;